Time;durP1;ratioP1;P1;durP2;ratioP2;P2;SDS_P1;SDS_P2;PMS_P1;PMS_P2;Temp;Humidity;BMP_temperature;BMP_pressure;BME280_temperature;BME280_humidity;BME280_pressure;Samples;Min_cycle;Max_cycle;Signal;HPM_P1;HPM_P2
2022/08/28 00:03:48;;;;;;;18.30;13.50;;;;;;;17.17;72.03;99356.00;212988;1276;141759;-65
2022/08/28 00:08:52;;;;;;;24.00;14.60;;;;;;;17.07;71.97;99355.44;214341;1275;140862;-66
2022/08/28 00:13:57;;;;;;;21.20;13.60;;;;;;;17.06;72.37;99358.36;214877;1275;220123;-66
2022/08/28 00:19:02;;;;;;;31.10;16.70;;;;;;;17.09;72.47;99359.23;214667;1275;140687;-66
2022/08/28 00:24:06;;;;;;;17.70;14.60;;;;;;;17.01;72.42;99358.19;214963;1275;139142;-66
2022/08/28 00:29:11;;;;;;;22.40;13.00;;;;;;;17.01;72.79;99353.45;215606;1275;140704;-66
2022/08/28 00:34:16;;;;;;;27.40;15.90;;;;;;;16.96;72.53;99357.59;214594;1276;140550;-65
2022/08/28 00:39:30;;;;;;;36.90;14.80;;;;;;;16.97;72.95;99353.11;215348;1274;142456;-66
2022/08/28 00:44:35;;;;;;;23.80;15.30;;;;;;;16.96;72.77;99353.50;215887;1275;140244;-66
2022/08/28 00:49:48;;;;;;;16.40;13.50;;;;;;;16.87;72.78;99351.06;215505;1275;140052;-67
2022/08/28 00:55:00;;;;;;;17.00;13.00;;;;;;;16.77;73.03;99351.23;215954;1275;141073;-68
2022/08/28 01:00:11;;;;;;;20.70;15.50;;;;;;;16.66;73.07;99355.89;214841;1276;141029;-66
2022/08/28 01:05:16;;;;;;;20.70;13.60;;;;;;;16.67;73.52;99351.59;215331;1276;140242;-66
2022/08/28 01:10:22;;;;;;;22.10;12.90;;;;;;;16.70;73.56;99348.65;213390;1276;141116;-66
2022/08/28 01:15:32;;;;;;;14.80;12.70;;;;;;;16.66;73.73;99349.39;214486;1276;140690;-66
2022/08/28 01:20:50;;;;;;;16.70;12.40;;;;;;;16.67;73.89;99346.90;214162;1275;140543;-66
2022/08/28 01:25:59;;;;;;;16.20;13.40;;;;;;;16.66;73.84;99355.25;213827;1275;140899;-65
2022/08/28 01:31:15;;;;;;;15.70;14.10;;;;;;;16.52;73.94;99353.58;214333;1275;140524;-65
2022/08/28 01:36:21;;;;;;;17.60;13.60;;;;;;;16.54;74.29;99354.73;213985;1276;140842;-66
2022/08/28 01:41:25;;;;;;;17.90;12.90;;;;;;;16.53;74.37;99350.21;213680;1277;140413;-68
2022/08/28 01:46:30;;;;;;;17.40;13.10;;;;;;;16.49;74.00;99353.83;214722;1275;140556;-67
2022/08/28 01:51:35;;;;;;;17.50;14.80;;;;;;;16.41;74.19;99350.35;213519;1276;141154;-67
2022/08/28 01:56:43;;;;;;;18.50;12.70;;;;;;;16.36;74.64;99350.54;213915;1275;140200;-66
2022/08/28 02:01:47;;;;;;;16.10;13.70;;;;;;;16.40;74.75;99352.29;213128;1276;139981;-67
2022/08/28 02:06:52;;;;;;;14.80;13.30;;;;;;;16.36;74.86;99353.34;214578;1276;141105;-66
2022/08/28 02:11:57;;;;;;;25.10;15.20;;;;;;;16.33;74.89;99343.63;213841;1275;142161;-66
2022/08/28 02:17:01;;;;;;;19.20;13.60;;;;;;;16.28;75.13;99337.70;214609;1275;140383;-66
2022/08/28 02:22:08;;;;;;;16.40;13.40;;;;;;;16.25;75.11;99336.80;214831;1276;140984;-66
2022/08/28 02:27:13;;;;;;;17.10;14.50;;;;;;;16.14;75.30;99341.42;215230;1276;142107;-66
2022/08/28 02:32:18;;;;;;;16.60;13.70;;;;;;;16.10;75.72;99337.09;214538;1277;142598;-66
2022/08/28 02:37:23;;;;;;;15.90;13.50;;;;;;;16.14;75.91;99333.20;215591;1276;141151;-66
2022/08/28 02:42:28;;;;;;;13.00;11.50;;;;;;;16.08;75.78;99334.31;215215;1276;140184;-66
2022/08/28 02:47:34;;;;;;;15.90;12.70;;;;;;;16.05;76.28;99335.14;215874;1275;140500;-67
2022/08/28 02:52:42;;;;;;;18.90;11.30;;;;;;;16.16;76.79;99334.80;215916;1276;139980;-66
2022/08/28 02:57:48;;;;;;;13.90;11.10;;;;;;;16.24;76.39;99338.63;215078;1276;140272;-66
2022/08/28 03:02:55;;;;;;;18.50;11.50;;;;;;;16.26;76.26;99344.38;215590;1275;140458;-66
2022/08/28 03:07:59;;;;;;;13.70;11.30;;;;;;;16.25;76.41;99343.63;214309;1275;141117;-67
2022/08/28 03:13:04;;;;;;;14.40;11.50;;;;;;;16.30;76.82;99342.84;214225;1274;141212;-66
2022/08/28 03:18:10;;;;;;;15.80;11.00;;;;;;;16.39;76.88;99350.25;213830;1276;141192;-65
2022/08/28 03:23:27;;;;;;;13.20;10.20;;;;;;;16.40;76.83;99350.09;214104;1275;140651;-66
2022/08/28 03:28:40;;;;;;;11.60;10.40;;;;;;;16.38;76.82;99351.65;215061;1276;140772;-65
2022/08/28 03:33:46;;;;;;;14.00;9.90;;;;;;;16.33;76.97;99350.73;214031;1276;140004;-66
2022/08/28 03:38:53;;;;;;;11.60;9.70;;;;;;;16.35;77.62;99358.52;213642;1275;140295;-67
2022/08/28 03:44:00;;;;;;;8.40;7.30;;;;;;;16.40;78.12;99360.31;214096;1277;140138;-67
2022/08/28 03:49:05;;;;;;;15.20;11.10;;;;;;;16.50;78.77;99357.31;214064;1276;140392;-65
2022/08/28 03:54:11;;;;;;;15.60;10.10;;;;;;;16.63;79.04;99359.36;213627;1274;141040;-68
2022/08/28 03:59:15;;;;;;;9.60;8.60;;;;;;;16.78;79.08;99359.77;214528;1276;140309;-67
2022/08/28 04:04:19;;;;;;;11.00;9.90;;;;;;;16.95;78.85;99359.48;213501;1275;140703;-67
2022/08/28 04:09:24;;;;;;;11.20;8.50;;;;;;;17.12;78.94;99358.06;214945;1277;139738;-67
2022/08/28 04:14:29;;;;;;;11.40;9.10;;;;;;;17.33;79.03;99356.70;214849;1275;139786;-69
2022/08/28 04:19:34;;;;;;;8.80;8.10;;;;;;;17.49;78.75;99365.59;214712;1275;139948;-66
2022/08/28 04:24:39;;;;;;;12.90;8.80;;;;;;;17.60;78.56;99365.83;214142;1276;141597;-67
2022/08/28 04:29:44;;;;;;;13.80;8.20;;;;;;;17.71;78.58;99367.88;215305;1275;139870;-68
2022/08/28 04:34:49;;;;;;;11.90;8.60;;;;;;;17.76;78.11;99370.10;214670;1276;141852;-66
2022/08/28 04:39:54;;;;;;;9.90;8.50;;;;;;;17.80;78.08;99376.04;214753;1276;140649;-67
2022/08/28 04:44:58;;;;;;;11.70;8.30;;;;;;;17.87;78.05;99373.79;214624;1275;139645;-65
2022/08/28 04:50:04;;;;;;;8.00;7.20;;;;;;;17.98;78.29;99368.27;215888;1276;141905;-66
2022/08/28 04:55:09;;;;;;;15.80;8.40;;;;;;;18.12;78.43;99369.91;215925;1275;139612;-66
2022/08/28 05:00:14;;;;;;;10.10;7.90;;;;;;;18.33;78.64;99373.16;216103;1275;140216;-66
2022/08/28 05:05:17;;;;;;;9.40;8.50;;;;;;;18.62;78.65;99374.14;215284;1275;140871;-66
2022/08/28 05:10:25;;;;;;;;;;;;;;;18.92;78.75;99377.90;214400;1275;140725;-65
2022/08/28 05:15:30;;;;;;;9.90;8.90;;;;;;;19.09;78.36;99379.89;214398;1276;126797;-66
2022/08/28 05:20:40;;;;;;;10.80;9.20;;;;;;;19.19;78.23;99384.75;214333;1274;139944;-67
2022/08/28 05:25:47;;;;;;;8.90;7.70;;;;;;;19.34;78.10;99391.41;213392;1277;140259;-66
2022/08/28 05:30:51;;;;;;;9.60;8.60;;;;;;;19.52;77.74;99394.20;214498;1275;139757;-66
2022/08/28 05:35:55;;;;;;;8.90;8.10;;;;;;;19.66;77.49;99404.29;213825;1276;141046;-66
2022/08/28 05:40:59;;;;;;;9.40;8.50;;;;;;;19.83;77.36;99402.11;214437;1277;140589;-67
2022/08/28 05:46:09;;;;;;;14.40;7.90;;;;;;;19.99;77.34;99402.13;214225;1275;140329;-66
2022/08/28 05:51:17;;;;;;;8.20;7.50;;;;;;;20.24;77.32;99398.20;214715;1275;141886;-67
2022/08/28 05:56:25;;;;;;;10.30;9.30;;;;;;;20.65;77.08;99405.52;214736;1275;141737;-67
2022/08/28 06:01:32;;;;;;;12.90;11.40;;;;;;;20.96;76.65;99410.14;214412;1276;140485;-66
2022/08/28 06:06:38;;;;;;;16.20;12.30;;;;;;;21.16;76.34;99410.84;213942;1275;141450;-68
2022/08/28 06:11:43;;;;;;;12.40;11.20;;;;;;;21.21;76.05;99407.10;215312;1275;139470;-68
2022/08/28 06:16:53;;;;;;;13.00;11.70;;;;;;;21.25;75.96;99405.99;213869;1276;140286;-66
2022/08/28 06:22:00;;;;;;;11.80;10.60;;;;;;;21.35;76.01;99405.05;215166;1277;140936;-67
2022/08/28 06:27:10;;;;;;;12.70;10.80;;;;;;;21.47;75.68;99408.23;214756;1275;140558;-67
2022/08/28 06:32:15;;;;;;;13.40;11.80;;;;;;;21.58;75.40;99404.57;215346;1275;140336;-67
2022/08/28 06:37:19;;;;;;;14.20;12.80;;;;;;;21.72;75.27;99404.38;215796;1276;140652;-67
2022/08/28 06:42:24;;;;;;;13.20;11.40;;;;;;;21.89;75.25;99406.73;215850;1275;140109;-67
2022/08/28 06:47:30;;;;;;;20.30;13.30;;;;;;;22.24;75.25;99410.91;215779;1275;141099;-68
2022/08/28 06:52:34;;;;;;;14.10;12.80;;;;;;;22.73;74.60;99410.52;216059;1275;141675;-68
2022/08/28 06:57:41;;;;;;;14.20;12.40;;;;;;;23.26;73.92;99414.84;215943;1275;140917;-67
2022/08/28 07:02:46;;;;;;;14.80;13.40;;;;;;;24.09;73.14;99410.42;215516;1276;141370;-67
2022/08/28 07:07:50;;;;;;;13.30;12.20;;;;;;;24.39;71.84;99410.24;214116;1276;151802;-67
2022/08/28 07:12:55;;;;;;;10.60;9.30;;;;;;;24.39;71.12;99408.39;213858;1277;140340;-67
2022/08/28 07:18:00;;;;;;;13.70;12.30;;;;;;;24.55;70.80;99418.14;214837;1275;140348;-67
2022/08/28 07:23:05;;;;;;;13.60;10.90;;;;;;;25.16;70.29;99413.70;214915;1275;151684;-67
2022/08/28 07:28:10;;;;;;;16.40;13.40;;;;;;;25.88;69.97;99414.80;213587;1277;141476;-67
2022/08/28 07:33:15;;;;;;;;;;;;;;;26.55;68.90;99421.45;215135;1277;141557;-67
2022/08/28 07:38:23;;;;;;;16.20;13.70;;;;;;;27.15;68.26;99424.20;214133;1276;130614;-65
2022/08/28 07:48:53;;;;;;;13.90;11.80;;;;;;;28.22;66.47;99432.94;213544;1277;140750;-68
2022/08/28 07:53:58;;;;;;;13.90;11.40;;;;;;;28.65;65.43;99433.27;213675;1277;142283;-68
2022/08/28 07:59:03;;;;;;;12.10;11.00;;;;;;;28.76;63.93;99434.64;214794;1275;140435;-67
2022/08/28 08:04:12;;;;;;;15.00;13.10;;;;;;;28.75;62.58;99433.38;213397;1277;151705;-67
2022/08/28 08:09:19;;;;;;;13.40;12.20;;;;;;;28.73;62.47;99429.42;214318;1276;140406;-68
2022/08/28 08:14:26;;;;;;;14.90;13.40;;;;;;;28.94;62.40;99430.55;213773;1277;141940;-68
2022/08/28 08:19:32;;;;;;;15.50;13.90;;;;;;;29.31;61.89;99427.64;214761;1276;139508;-68
2022/08/28 08:24:38;;;;;;;13.70;12.60;;;;;;;29.57;61.35;99428.25;214065;1276;140225;-67
2022/08/28 08:29:43;;;;;;;13.60;12.20;;;;;;;29.73;60.35;99435.15;215575;1276;143111;-67
2022/08/28 08:34:48;;;;;;;15.10;12.30;;;;;;;29.86;59.83;99433.79;214832;1277;141715;-67
2022/08/28 08:39:53;;;;;;;13.30;11.90;;;;;;;29.86;58.92;99432.61;214672;1276;139976;-67
2022/08/28 08:45:02;;;;;;;16.20;14.80;;;;;;;29.74;58.78;99432.04;214607;1275;140154;-67
2022/08/28 08:50:29;;;;;;;13.10;11.90;;;;;;;29.26;58.13;99437.06;214514;1276;140949;-67
2022/08/28 08:55:40;;;;;;;19.20;15.10;;;;;;;29.02;58.81;99444.48;215285;1276;140254;-68
2022/08/28 09:01:02;;;;;;;16.80;13.50;;;;;;;28.89;58.76;99448.71;214999;1276;140612;-70
2022/08/28 09:06:23;;;;;;;15.70;13.10;;;;;;;29.07;59.44;99452.33;214573;1276;139301;-67
2022/08/28 09:11:46;;;;;;;18.90;13.30;;;;;;;29.22;59.21;99455.56;213921;1277;140117;-67
2022/08/28 09:17:00;;;;;;;18.90;13.50;;;;;;;28.93;58.29;99455.14;214543;1275;141642;-67
2022/08/28 09:22:04;;;;;;;17.30;14.90;;;;;;;28.60;58.60;99463.58;214008;1276;140537;-66
2022/08/28 09:27:25;;;;;;;18.10;15.30;;;;;;;28.47;58.72;99468.16;213346;1277;141105;-67
2022/08/28 09:32:46;;;;;;;15.20;13.90;;;;;;;28.45;58.76;99470.70;213217;1276;140501;-67
2022/08/28 09:37:51;;;;;;;16.40;14.70;;;;;;;28.39;59.20;99470.04;213487;1276;140595;-67
2022/08/28 09:43:26;;;;;;;14.90;13.40;;;;;;;28.85;59.81;99465.48;212913;1277;163695;-67
2022/08/28 09:48:34;;;;;;;15.30;13.80;;;;;;;29.09;58.83;99467.80;214181;1275;140497;-68
2022/08/28 09:53:50;;;;;;;15.20;13.60;;;;;;;29.14;58.49;99469.86;213344;1277;141397;-68
2022/08/28 09:59:17;;;;;;;18.00;13.30;;;;;;;29.13;58.31;99472.75;213451;1276;140593;-67
2022/08/28 10:04:46;;;;;;;14.60;13.20;;;;;;;29.12;57.90;99469.59;214875;1276;139402;-69
2022/08/28 10:10:08;;;;;;;14.40;12.70;;;;;;;29.12;57.73;99479.55;214299;1275;1453453;-68
2022/08/28 10:15:33;;;;;;;15.70;13.30;;;;;;;29.23;57.42;99484.21;215349;1277;140691;-70
2022/08/28 10:21:09;;;;;;;14.80;13.50;;;;;;;29.28;57.21;99485.40;213617;1276;140701;-69
2022/08/28 10:26:22;;;;;;;13.70;12.40;;;;;;;29.37;57.25;99482.89;214244;1276;139840;-70
2022/08/28 10:31:46;;;;;;;12.20;11.00;;;;;;;29.46;56.89;99483.64;215166;1276;139996;-68
2022/08/28 10:37:17;;;;;;;17.30;15.20;;;;;;;29.46;57.11;99492.33;214923;1276;141446;-70
2022/08/28 10:42:36;;;;;;;10.20;9.00;;;;;;;29.36;56.77;99490.50;215463;1277;140525;-71
2022/08/28 10:47:45;;;;;;;14.50;13.10;;;;;;;29.32;56.96;99493.56;215877;1276;140281;-68
2022/08/28 10:52:59;;;;;;;17.50;14.40;;;;;;;29.42;56.80;99495.15;216143;1276;140957;-71
2022/08/28 10:58:07;;;;;;;15.60;14.20;;;;;;;29.50;56.61;99492.95;215741;1276;139765;-69
2022/08/28 11:03:36;;;;;;;15.60;14.00;;;;;;;29.68;56.07;99489.08;215803;1277;140006;-71
2022/08/28 11:08:52;;;;;;;18.50;14.60;;;;;;;29.76;55.91;99487.48;213706;1277;140537;-69
2022/08/28 11:14:00;;;;;;;15.80;14.20;;;;;;;29.70;55.51;99487.21;214555;1277;139813;-69
2022/08/28 11:19:16;;;;;;;18.50;15.50;;;;;;;29.69;55.78;99491.45;215384;1276;140382;-69
2022/08/28 11:24:48;;;;;;;17.60;15.90;;;;;;;29.81;55.97;99488.17;213173;1275;140613;-69
2022/08/28 11:30:28;;;;;;;23.60;18.80;;;;;;;30.00;55.92;99488.09;214504;1276;140318;-68
2022/08/28 11:35:39;;;;;;;20.60;18.40;;;;;;;30.16;55.37;99485.27;213821;1275;139355;-68
2022/08/28 11:40:43;;;;;;;24.40;19.40;;;;;;;30.01;55.04;99484.42;214529;1277;139447;-68
2022/08/28 11:45:53;;;;;;;20.00;18.00;;;;;;;29.77;55.02;99484.73;213522;1277;140265;-67
2022/08/28 11:51:25;;;;;;;20.10;18.20;;;;;;;29.73;55.56;99488.60;213386;1276;140046;-67
2022/08/28 11:56:51;;;;;;;18.40;16.60;;;;;;;30.01;55.51;99490.14;214696;1275;139129;-68
2022/08/28 12:01:56;;;;;;;16.10;14.50;;;;;;;29.90;55.04;99485.35;213241;1277;142323;-67
2022/08/28 12:07:22;;;;;;;17.00;15.30;;;;;;;29.93;55.07;99485.92;213741;1277;159877;-68
2022/08/28 12:12:45;;;;;;;18.70;15.50;;;;;;;30.10;55.13;99481.58;213175;1277;140809;-69
2022/08/28 12:17:51;;;;;;;19.80;16.20;;;;;;;30.31;54.80;99477.68;214725;1276;141123;-69
2022/08/28 12:23:00;;;;;;;21.60;16.50;;;;;;;30.53;54.65;99476.25;214630;1277;139243;-69
2022/08/28 12:28:30;;;;;;;17.80;15.90;;;;;;;30.75;54.12;99477.55;214654;1276;139442;-69
2022/08/28 12:34:00;;;;;;;18.30;16.20;;;;;;;30.72;53.66;99469.27;215766;1276;140972;-69
2022/08/28 12:39:17;;;;;;;20.60;17.70;;;;;;;30.65;53.48;99468.32;216059;1276;139090;-72
2022/08/28 12:44:32;;;;;;;21.10;18.00;;;;;;;30.55;53.59;99470.23;215999;1276;139912;-71
2022/08/28 12:49:37;;;;;;;30.70;17.90;;;;;;;30.34;53.66;99469.42;215945;1276;139867;-72
2022/08/28 12:54:43;;;;;;;20.30;15.70;;;;;;;30.16;54.00;99467.77;214735;1277;139861;-68
2022/08/28 12:59:52;;;;;;;16.60;14.80;;;;;;;30.23;53.86;99467.30;215738;1276;141409;-69
2022/08/28 13:05:21;;;;;;;18.50;16.00;;;;;;;30.25;53.88;99468.27;213875;1275;139858;-70
2022/08/28 13:10:31;;;;;;;19.40;16.70;;;;;;;30.23;53.71;99472.25;214989;1276;139498;-69
2022/08/28 13:15:48;;;;;;;18.00;15.90;;;;;;;30.25;53.83;99471.02;214472;1276;140390;-70
2022/08/28 13:21:19;;;;;;;17.70;15.20;;;;;;;30.14;53.84;99470.70;214453;1277;141204;-68
2022/08/28 13:26:37;;;;;;;15.10;13.50;;;;;;;29.91;53.45;99467.69;214686;1277;139150;-69
2022/08/28 13:31:43;;;;;;;20.50;15.20;;;;;;;29.59;53.48;99463.90;214154;1276;139915;-67
2022/08/28 13:36:56;;;;;;;21.50;17.10;;;;;;;29.32;54.14;99474.20;213570;1277;139628;-67
2022/08/28 13:42:10;;;;;;;20.10;17.60;;;;;;;29.25;54.38;99480.17;214611;1276;139697;-67
2022/08/28 13:47:14;;;;;;;20.50;18.50;;;;;;;29.13;54.64;99480.20;214643;1276;140701;-67
2022/08/28 13:52:21;;;;;;;24.50;19.70;;;;;;;28.95;54.73;99472.59;213209;1276;141332;-67
2022/08/28 13:57:28;;;;;;;21.30;19.00;;;;;;;28.85;55.25;99467.52;213579;1276;161908;-66
2022/08/28 14:07:59;;;;;;;19.00;17.00;;;;;;;28.61;55.35;99455.45;213535;1277;140230;-69
2022/08/28 14:13:03;;;;;;;24.90;18.40;;;;;;;28.54;55.58;99445.89;213103;1277;140949;-69
2022/08/28 14:18:07;;;;;;;23.40;19.00;;;;;;;28.60;55.86;99432.13;214253;1276;140128;-69
2022/08/28 14:23:12;;;;;;;20.00;18.00;;;;;;;28.66;55.75;99429.91;213345;1277;141472;-67
2022/08/28 14:28:16;;;;;;;18.60;16.70;;;;;;;28.54;55.64;99435.40;214911;1276;140280;-68
2022/08/28 14:33:20;;;;;;;20.70;17.70;;;;;;;28.32;56.11;99432.70;215038;1276;141287;-71
2022/08/28 14:38:25;;;;;;;18.20;16.60;;;;;;;28.14;56.12;99443.55;215251;1275;139897;-72
2022/08/28 14:43:30;;;;;;;21.40;17.50;;;;;;;28.08;56.53;99467.70;215405;1275;142113;-68
2022/08/28 14:48:33;;;;;;;21.50;18.30;;;;;;;27.95;56.75;99484.71;215924;1275;141005;-69
2022/08/28 14:53:37;;;;;;;22.10;19.80;;;;;;;27.77;56.98;99499.31;215334;1276;140420;-67
2022/08/28 14:58:42;;;;;;;18.60;16.40;;;;;;;27.57;57.27;99509.92;214357;1276;140590;-67
2022/08/28 15:03:46;;;;;;;23.70;19.50;;;;;;;27.30;57.40;99504.19;216013;1274;140311;-70
2022/08/28 15:08:52;;;;;;;23.10;18.60;;;;;;;27.07;57.86;99492.29;215468;1276;140457;-70
2022/08/28 15:13:57;;;;;;;23.40;20.50;;;;;;;26.79;58.17;99480.45;214434;1276;139870;-70
2022/08/28 15:19:06;;;;;;;25.70;22.40;;;;;;;26.63;58.86;99475.55;215128;1275;139603;-67
2022/08/28 15:24:09;;;;;;;27.80;22.40;;;;;;;26.44;59.06;99495.09;214613;1276;142130;-68
2022/08/28 15:29:14;;;;;;;28.60;24.60;;;;;;;26.28;59.54;99513.71;213815;1276;140182;-66
2022/08/28 15:34:22;;;;;;;37.30;24.80;;;;;;;26.13;60.00;99496.56;213800;1275;141100;-67
2022/08/28 15:44:51;;;;;;;29.30;25.10;;;;;;;25.97;60.98;99496.06;213473;1276;141265;-68
2022/08/28 15:49:55;;;;;;;29.70;25.30;;;;;;;25.91;61.24;99518.58;213357;1276;141040;-67
2022/08/28 15:55:01;;;;;;;42.00;27.60;;;;;;;25.70;61.57;99528.66;213911;1276;141246;-67
2022/08/28 16:00:08;;;;;;;27.90;24.80;;;;;;;25.62;62.14;99518.73;214710;1276;139411;-69
2022/08/28 16:05:15;;;;;;;32.30;26.10;;;;;;;25.50;62.32;99506.14;213179;1276;140656;-69
2022/08/28 16:10:21;;;;;;;30.80;23.80;;;;;;;25.48;62.72;99494.13;214446;1276;140293;-67
2022/08/28 16:15:25;;;;;;;16.90;13.30;;;;;;;25.38;62.38;99504.41;214249;1275;140879;-69
2022/08/28 16:20:29;;;;;;;13.10;9.80;;;;;;;25.18;61.55;99503.89;214706;1275;141863;-70
2022/08/28 16:25:34;;;;;;;9.80;8.90;;;;;;;25.06;61.02;99501.23;214861;1275;140482;-66
2022/08/28 16:30:41;;;;;;;12.10;10.90;;;;;;;24.87;61.13;99500.83;214222;1276;139137;-67
2022/08/28 16:35:49;;;;;;;10.60;8.90;;;;;;;24.44;61.00;99504.14;215877;1276;140213;-65
2022/08/28 16:40:58;;;;;;;16.20;12.30;;;;;;;24.02;61.73;99512.48;215041;1276;139617;-65
2022/08/28 16:46:02;;;;;;;12.60;9.30;;;;;;;23.73;62.38;99528.33;213265;1276;140879;-67
2022/08/28 16:51:09;;;;;;;15.00;8.50;;;;;;;23.52;62.79;99530.16;215891;1276;140427;-66
2022/08/28 16:56:17;;;;;;;13.40;9.10;;;;;;;23.01;63.71;99533.85;215076;1276;140682;-65
2022/08/28 17:01:28;;;;;;;9.20;6.50;;;;;;;22.56;64.81;99544.28;215946;1275;140377;-68
2022/08/28 17:06:34;;;;;;;8.20;6.60;;;;;;;22.24;65.60;99552.64;214613;1276;139352;-68
2022/08/28 17:11:38;;;;;;;7.80;6.20;;;;;;;21.90;66.48;99559.50;214267;1276;138879;-69
2022/08/28 17:16:44;;;;;;;9.80;6.10;;;;;;;21.66;67.39;99558.90;214752;1275;140779;-66
2022/08/28 17:27:10;;;;;;;6.70;4.20;;;;;;;21.23;68.72;99545.73;214049;1275;142216;-69
2022/08/28 17:32:17;;;;;;;8.70;4.40;;;;;;;21.01;69.08;99547.51;214180;1275;141333;-67
2022/08/28 17:37:22;;;;;;;5.90;4.40;;;;;;;20.89;69.55;99555.77;213489;1276;140637;-68
2022/08/28 17:42:27;;;;;;;4.40;4.00;;;;;;;20.73;69.92;99556.31;213424;1276;162472;-70
2022/08/28 17:47:32;;;;;;;7.50;5.10;;;;;;;20.66;70.53;99559.11;213081;1276;139990;-68
2022/08/28 17:52:39;;;;;;;4.80;4.40;;;;;;;20.59;71.16;99550.83;213564;1275;139387;-69
2022/08/28 17:57:45;;;;;;;10.60;6.60;;;;;;;20.58;71.75;99561.84;214377;1276;139823;-68
2022/08/28 18:02:51;;;;;;;6.70;6.00;;;;;;;20.69;72.27;99568.33;213406;1276;140264;-67
2022/08/28 18:07:58;;;;;;;7.10;6.00;;;;;;;20.77;72.66;99569.86;213656;1275;140110;-68
2022/08/28 18:13:05;;;;;;;7.50;6.40;;;;;;;20.79;72.83;99573.28;214501;1275;140312;-67
2022/08/28 18:18:13;;;;;;;10.20;6.30;;;;;;;20.74;73.10;99575.52;213361;1276;141568;-66
2022/08/28 18:23:18;;;;;;;6.40;5.70;;;;;;;20.62;73.11;99580.23;214489;1275;140618;-65
2022/08/28 18:28:25;;;;;;;16.60;7.00;;;;;;;20.45;73.26;99583.89;212862;1276;139781;-67
2022/08/28 18:33:29;;;;;;;7.70;5.70;;;;;;;20.37;73.65;99587.09;215382;1276;140536;-67
2022/08/28 18:38:34;;;;;;;10.50;6.30;;;;;;;20.42;74.00;99582.77;213756;1275;161786;-68
2022/08/28 18:43:39;;;;;;;5.80;4.80;;;;;;;20.58;74.27;99587.61;216039;1275;141260;-69
2022/08/28 18:48:44;;;;;;;5.70;5.20;;;;;;;20.67;74.26;99596.19;215697;1276;143170;-69
2022/08/28 18:53:48;;;;;;;10.70;5.50;;;;;;;20.75;74.35;99592.61;215766;1275;141184;-69
2022/08/28 18:58:53;;;;;;;11.70;6.20;;;;;;;20.82;74.29;99590.06;214745;1276;140858;-69
2022/08/28 19:03:58;;;;;;;7.10;6.00;;;;;;;20.83;74.38;99592.25;216064;1275;140385;-69
2022/08/28 19:09:04;;;;;;;8.20;6.40;;;;;;;20.84;74.46;99587.30;215713;1275;139485;-67
2022/08/28 19:14:08;;;;;;;6.60;6.00;;;;;;;20.87;74.56;99584.42;214947;1275;142367;-67
2022/08/28 19:19:14;;;;;;;8.50;6.10;;;;;;;20.80;74.54;99590.70;214733;1275;141737;-67
2022/08/28 19:24:21;;;;;;;6.50;5.90;;;;;;;20.64;74.64;99582.51;213430;1275;141084;-67
2022/08/28 19:29:26;;;;;;;14.70;5.70;;;;;;;20.59;75.03;99571.95;213676;1275;141272;-69
2022/08/28 19:34:31;;;;;;;8.70;5.30;;;;;;;20.55;75.02;99568.73;214592;1276;140196;-70
2022/08/28 19:39:35;;;;;;;6.40;5.80;;;;;;;20.44;75.14;99560.20;213688;1274;141843;-70
2022/08/28 19:44:39;;;;;;;5.80;5.30;;;;;;;20.34;75.28;99553.64;212874;1274;140429;-67
2022/08/28 19:49:44;;;;;;;8.00;5.90;;;;;;;20.20;75.56;99552.81;213564;1275;140033;-70
2022/08/28 19:54:48;;;;;;;12.40;7.90;;;;;;;20.23;75.92;99561.20;213806;1275;141259;-66
2022/08/28 19:59:52;;;;;;;8.20;6.20;;;;;;;20.23;76.01;99563.48;214020;1275;163930;-67
2022/08/28 20:04:58;;;;;;;8.10;6.10;;;;;;;20.24;76.24;99567.30;213403;1275;141953;-66
2022/08/28 20:10:03;;;;;;;9.00;7.20;;;;;;;20.27;76.27;99571.34;213178;1274;141186;-70
2022/08/28 20:15:08;;;;;;;9.50;6.20;;;;;;;20.26;76.36;99565.31;214537;1276;141940;-70
2022/08/28 20:20:18;;;;;;;7.90;6.60;;;;;;;20.20;76.49;99562.45;214253;1275;141321;-68
2022/08/28 20:25:22;;;;;;;8.60;7.20;;;;;;;20.06;76.63;99571.36;213129;1275;141569;-67
2022/08/28 20:30:28;;;;;;;9.40;8.60;;;;;;;20.05;77.00;99582.95;214264;1276;140880;-68
2022/08/28 20:35:33;;;;;;;10.10;9.10;;;;;;;20.11;77.46;99583.00;214693;1276;141185;-67
2022/08/28 20:40:38;;;;;;;11.30;9.20;;;;;;;20.19;77.66;99587.05;214625;1276;140127;-67
2022/08/28 20:45:42;;;;;;;14.30;9.60;;;;;;;20.25;77.85;99595.65;215203;1275;142254;-68
2022/08/28 20:50:47;;;;;;;10.60;9.50;;;;;;;20.30;78.19;99594.48;215982;1275;140496;-69
2022/08/28 20:55:58;;;;;;;13.90;8.80;;;;;;;20.37;78.37;99593.80;215851;1275;141787;-68
2022/08/28 21:01:03;;;;;;;8.90;7.50;;;;;;;20.44;78.41;99597.24;214047;1276;142774;-70
2022/08/28 21:06:09;;;;;;;7.40;6.60;;;;;;;20.48;78.70;99595.43;215304;1275;141906;-68
2022/08/28 21:11:13;;;;;;;6.90;4.40;;;;;;;20.55;78.90;99588.92;214545;1276;141209;-67
2022/08/28 21:16:18;;;;;;;11.10;4.90;;;;;;;20.57;79.02;99583.85;213901;1276;141001;-68
2022/08/28 21:21:23;;;;;;;4.90;4.40;;;;;;;20.60;79.22;99587.58;214255;1275;142041;-66
2022/08/28 21:26:28;;;;;;;5.80;4.70;;;;;;;20.61;79.50;99591.40;214286;1276;140563;-69
2022/08/28 21:31:33;;;;;;;7.60;4.30;;;;;;;20.64;79.53;99606.06;214138;1276;163469;-66
2022/08/28 21:36:40;;;;;;;5.40;4.90;;;;;;;20.63;79.58;99614.81;213215;1275;141729;-70
2022/08/28 21:41:53;;;;;;;6.00;5.20;;;;;;;20.63;79.55;99622.08;214225;1275;141666;-69
2022/08/28 21:46:57;;;;;;;7.10;6.60;;;;;;;20.61;79.67;99624.70;213740;1276;140745;-67
2022/08/28 21:52:01;;;;;;;6.70;6.10;;;;;;;20.57;79.65;99625.98;213841;1276;142300;-68
2022/08/28 21:57:06;;;;;;;14.50;7.20;;;;;;;20.50;79.78;99632.14;214051;1275;140946;-67
2022/08/28 22:02:11;;;;;;;8.10;7.40;;;;;;;20.47;80.02;99638.81;214398;1276;141891;-67
2022/08/28 22:07:16;;;;;;;10.70;6.50;;;;;;;20.47;79.95;99644.29;213305;1277;231877;-66
2022/08/28 22:12:19;;;;;;;7.00;6.40;;;;;;;20.43;80.03;99644.76;213475;1276;1328002;-66
2022/08/28 22:17:24;;;;;;;7.50;6.80;;;;;;;20.48;80.22;99641.11;213796;1276;141833;-68
2022/08/28 22:27:55;;;;;;;;;;;;;;;20.56;80.03;99644.31;215143;1276;140452;-67
2022/08/28 22:33:01;;;;;;;8.10;6.50;;;;;;;20.47;79.92;99639.63;214434;1275;131481;-67
2022/08/28 22:38:05;;;;;;;8.30;7.30;;;;;;;20.47;79.95;99644.06;213451;1276;140866;-68
2022/08/28 22:43:11;;;;;;;7.90;7.10;;;;;;;20.47;79.95;99647.10;215751;1275;142582;-68
2022/08/28 22:48:16;;;;;;;9.50;7.60;;;;;;;20.47;80.03;99649.88;215836;1275;141987;-67
2022/08/28 22:53:21;;;;;;;7.00;6.40;;;;;;;20.49;80.07;99653.21;215359;1276;140234;-68
2022/08/28 22:58:28;;;;;;;6.70;5.70;;;;;;;20.53;80.14;99648.82;215416;1275;141215;-68
2022/08/28 23:03:33;;;;;;;6.50;5.80;;;;;;;20.55;80.10;99649.42;215526;1276;141380;-68
2022/08/28 23:08:38;;;;;;;8.40;5.80;;;;;;;20.58;80.23;99658.08;215615;1276;141591;-66
2022/08/28 23:13:42;;;;;;;6.30;5.70;;;;;;;20.64;80.31;99658.52;214916;1275;142094;-67
2022/08/28 23:18:47;;;;;;;7.50;5.70;;;;;;;20.59;79.74;99658.98;215183;1276;140571;-67
2022/08/28 23:24:17;;;;;;;5.20;4.80;;;;;;;20.49;79.57;99652.59;214813;1276;140022;-68
2022/08/28 23:29:22;;;;;;;5.60;5.00;;;;;;;20.40;79.76;99654.51;214109;1275;140604;-66
2022/08/28 23:34:27;;;;;;;6.10;5.10;;;;;;;20.37;79.78;99662.07;213696;1276;140665;-67
2022/08/28 23:39:41;;;;;;;5.30;3.90;;;;;;;20.29;79.67;99661.94;214691;1275;141020;-68
2022/08/28 23:44:47;;;;;;;4.00;3.50;;;;;;;20.22;79.73;99660.83;214047;1276;140384;-67